Time;durP1;ratioP1;P1;durP2;ratioP2;P2;SDS_P1;SDS_P2;PMS_P1;PMS_P2;Temp;Humidity;BMP_temperature;BMP_pressure;BME280_temperature;BME280_humidity;BME280_pressure;Samples;Min_cycle;Max_cycle;Signal;HPM_P1;HPM_P2
2023/06/18 00:00:35;;;;;;;14.73;11.70;;;21.90;75.40;;;;;;6184876;23;20024;-79
2023/06/18 00:03:01;;;;;;;15.77;12.23;;;21.80;75.60;;;;;;6157744;23;20442;-79
2023/06/18 00:05:26;;;;;;;13.80;12.30;;;21.70;75.90;;;;;;6157462;23;20075;-79
2023/06/18 00:07:52;;;;;;;15.82;12.52;;;21.60;75.80;;;;;;6184027;23;20048;-79
2023/06/18 00:10:18;;;;;;;14.68;12.27;;;21.50;75.80;;;;;;6184789;23;20043;-79
2023/06/18 00:12:43;;;;;;;15.73;13.27;;;21.50;76.20;;;;;;6157330;23;20405;-79
2023/06/18 00:15:09;;;;;;;15.77;12.80;;;21.40;76.40;;;;;;6184491;23;20013;-79
2023/06/18 00:17:35;;;;;;;15.32;12.02;;;21.40;76.20;;;;;;6184727;23;20017;-79
2023/06/18 00:20:01;;;;;;;15.10;12.70;;;21.30;77.60;;;;;;6156611;23;20373;-79
2023/06/18 00:22:27;;;;;;;16.30;13.02;;;21.30;77.20;;;;;;6158129;23;20452;-79
2023/06/18 00:24:54;;;;;;;16.23;12.93;;;21.20;77.20;;;;;;6184486;23;20017;-79
2023/06/18 00:27:20;;;;;;;15.57;13.32;;;21.20;77.30;;;;;;6183700;23;20403;-79
2023/06/18 00:29:47;;;;;;;16.90;13.27;;;21.10;77.60;;;;;;6184416;23;20045;-79
2023/06/18 00:32:14;;;;;;;14.60;12.68;;;21.10;77.00;;;;;;6183777;23;20092;-79
2023/06/18 00:34:41;;;;;;;16.48;14.15;;;21.00;77.80;;;;;;6157261;23;20021;-79
2023/06/18 00:37:09;;;;;;;16.50;13.48;;;21.00;78.00;;;;;;6184207;23;20013;-79
2023/06/18 00:39:38;;;;;;;15.10;13.15;;;20.90;78.20;;;;;;6157855;23;20017;-79
2023/06/18 00:42:05;;;;;;;15.95;13.05;;;20.90;78.20;;;;;;6183156;23;20016;-79
2023/06/18 00:44:31;;;;;;;16.58;13.98;;;20.80;78.10;;;;;;6184109;23;20508;-79
2023/06/18 00:46:59;;;;;;;15.68;13.43;;;20.80;78.80;;;;;;6157324;23;20041;-79
2023/06/18 00:49:26;;;;;;;17.73;14.75;;;20.80;78.80;;;;;;6183555;23;20174;-79
2023/06/18 00:51:52;;;;;;;16.88;13.68;;;20.70;79.00;;;;;;6183996;23;20114;-80
2023/06/18 00:54:18;;;;;;;16.85;14.35;;;20.70;79.10;;;;;;6184715;23;20013;-79
2023/06/18 00:56:51;;;;;;;17.40;15.13;;;20.70;78.80;;;;;;6184486;23;20024;-79
2023/06/18 00:59:22;;;;;;;16.77;14.43;;;20.70;79.40;;;;;;6187220;23;20015;-79
2023/06/18 01:01:54;;;;;;;16.63;14.30;;;20.60;79.50;;;;;;6185851;23;20020;-79
2023/06/18 01:04:23;;;;;;;17.30;14.68;;;20.60;79.00;;;;;;6186699;23;20017;-79
2023/06/18 01:06:51;;;;;;;17.38;15.38;;;20.50;79.50;;;;;;6159569;23;20020;-79
2023/06/18 01:09:21;;;;;;;17.77;14.52;;;20.60;79.70;;;;;;6159062;23;20028;-80
2023/06/18 01:11:57;;;;;;;16.92;14.20;;;20.50;79.90;;;;;;6159543;23;20028;-80
2023/06/18 01:14:28;;;;;;;16.77;14.77;;;20.40;79.70;;;;;;6158717;23;20023;-80
2023/06/18 01:16:59;;;;;;;17.02;14.60;;;20.40;79.90;;;;;;6157606;23;20149;-79
2023/06/18 01:19:49;;;;;;;17.70;15.10;;;20.40;80.20;;;;;;6185912;23;20311;-79
2023/06/18 01:22:15;;;;;;;19.63;15.68;;;20.30;79.10;;;;;;6185466;23;20446;-79
2023/06/18 01:24:50;;;;;;;18.58;15.60;;;20.30;80.60;;;;;;6184880;23;20462;-79
2023/06/18 01:27:21;;;;;;;18.15;15.02;;;20.30;80.50;;;;;;6159786;23;20017;-79
2023/06/18 01:29:57;;;;;;;18.05;15.00;;;20.20;80.80;;;;;;6158661;23;20037;-79
2023/06/18 01:32:23;;;;;;;18.77;15.40;;;20.20;80.00;;;;;;6159289;23;20013;-79
2023/06/18 01:34:53;;;;;;;18.02;15.15;;;20.20;80.80;;;;;;6185996;23;20028;-79
2023/06/18 01:37:38;;;;;;;17.67;14.85;;;20.20;81.20;;;;;;6185732;23;20014;-79
2023/06/18 01:40:18;;;;;;;17.65;15.27;;;20.10;80.30;;;;;;6158713;23;20028;-79
2023/06/18 01:42:59;;;;;;;18.27;15.38;;;20.00;80.10;;;;;;6185592;23;20453;-79
2023/06/18 01:45:31;;;;;;;17.27;15.23;;;20.00;80.70;;;;;;6158116;23;20036;-79
2023/06/18 01:48:02;;;;;;;18.38;15.13;;;20.00;80.90;;;;;;6185822;23;20027;-79
2023/06/18 01:50:30;;;;;;;18.13;15.27;;;20.00;81.10;;;;;;6159363;23;20019;-79
2023/06/18 01:52:58;;;;;;;17.05;14.55;;;19.90;81.40;;;;;;6158695;23;20040;-79
2023/06/18 01:55:25;;;;;;;18.15;15.18;;;19.90;81.40;;;;;;6159304;23;20017;-80
2023/06/18 01:57:51;;;;;;;19.42;15.45;;;19.90;81.40;;;;;;6184759;23;20028;-79
2023/06/18 02:00:18;;;;;;;17.50;14.60;;;19.80;81.10;;;;;;6185839;23;20060;-79
2023/06/18 02:02:43;;;;;;;20.02;16.13;;;19.80;80.70;;;;;;6185790;23;20021;-79
2023/06/18 02:05:09;;;;;;;18.52;15.75;;;19.70;81.30;;;;;;6184275;23;20027;-79
2023/06/18 02:07:35;;;;;;;18.17;15.48;;;19.70;81.50;;;;;;6159413;23;20015;-79
2023/06/18 02:10:00;;;;;;;19.05;15.82;;;19.60;81.30;;;;;;6158162;23;20017;-79
2023/06/18 02:12:26;;;;;;;18.33;15.40;;;19.50;80.80;;;;;;6158528;23;20345;-79
2023/06/18 02:14:51;;;;;;;17.70;15.52;;;19.50;80.30;;;;;;6185646;23;20016;-79
2023/06/18 02:17:17;;;;;;;19.17;15.43;;;19.40;80.00;;;;;;6159236;23;20469;-80
2023/06/18 02:19:43;;;;;;;17.98;15.43;;;19.30;80.40;;;;;;6158714;23;20005;-79
2023/06/18 02:22:09;;;;;;;17.92;15.73;;;19.30;81.20;;;;;;6159047;23;20020;-79
2023/06/18 02:24:35;;;;;;;17.95;15.32;;;19.30;81.80;;;;;;6185622;23;20433;-79
2023/06/18 02:27:00;;;;;;;18.30;15.60;;;19.20;81.80;;;;;;6185241;23;20036;-80
2023/06/18 02:29:26;;;;;;;18.20;15.48;;;19.20;81.90;;;;;;6159476;23;20091;-80
2023/06/18 02:31:51;;;;;;;17.48;15.48;;;19.20;82.30;;;;;;6184767;23;20398;-80
2023/06/18 02:34:18;;;;;;;18.40;15.52;;;19.10;82.60;;;;;;6185196;23;20071;-79
2023/06/18 02:36:44;;;;;;;18.92;15.77;;;19.10;82.60;;;;;;6159806;23;20017;-79
2023/06/18 02:39:10;;;;;;;19.88;15.82;;;19.10;82.30;;;;;;6158543;23;20444;-79
2023/06/18 02:41:35;;;;;;;17.77;15.13;;;19.10;83.00;;;;;;6157840;23;20044;-80
2023/06/18 02:44:04;;;;;;;17.95;16.05;;;19.10;83.20;;;;;;6158897;23;20016;-79
2023/06/18 02:46:30;;;;;;;19.00;15.75;;;19.00;83.10;;;;;;6185727;23;20063;-79
2023/06/18 02:48:55;;;;;;;19.42;16.38;;;19.00;83.30;;;;;;6184242;23;20458;-79
2023/06/18 02:51:21;;;;;;;18.77;16.25;;;19.00;83.80;;;;;;6185284;23;20019;-79
2023/06/18 02:53:47;;;;;;;18.75;16.23;;;18.90;83.70;;;;;;6158976;23;20342;-79
2023/06/18 02:56:13;;;;;;;18.35;16.17;;;19.00;83.80;;;;;;6184490;23;20017;-79
2023/06/18 02:58:39;;;;;;;19.55;16.33;;;18.90;83.70;;;;;;6185707;23;20016;-79
2023/06/18 03:01:04;;;;;;;20.13;15.88;;;18.90;83.50;;;;;;6184592;23;20084;-79
2023/06/18 03:03:30;;;;;;;19.33;16.58;;;18.90;83.90;;;;;;6185044;23;20025;-79
2023/06/18 03:05:56;;;;;;;20.30;16.02;;;18.90;83.80;;;;;;6158618;23;20020;-79
2023/06/18 03:08:21;;;;;;;18.75;16.23;;;18.80;83.80;;;;;;6184543;23;20064;-79
2023/06/18 03:10:47;;;;;;;19.73;16.50;;;18.80;83.90;;;;;;6184830;23;20013;-79
2023/06/18 03:13:13;;;;;;;19.50;15.88;;;18.80;83.90;;;;;;6185389;23;20024;-79
2023/06/18 03:15:38;;;;;;;19.83;16.92;;;18.70;84.00;;;;;;6184005;23;20017;-79
2023/06/18 03:18:05;;;;;;;17.85;15.75;;;18.70;83.90;;;;;;6184671;23;20024;-79
2023/06/18 03:20:31;;;;;;;18.75;16.25;;;18.70;83.70;;;;;;6158575;23;20091;-79
2023/06/18 03:22:58;;;;;;;19.20;15.77;;;18.60;83.80;;;;;;6184476;23;20017;-79
2023/06/18 03:25:24;;;;;;;18.40;16.10;;;18.60;84.20;;;;;;6158885;23;20045;-79
2023/06/18 03:27:50;;;;;;;18.63;15.70;;;18.60;84.50;;;;;;6157892;23;20056;-79
2023/06/18 03:30:16;;;;;;;20.05;16.88;;;18.50;84.40;;;;;;6157703;23;20009;-79
2023/06/18 03:32:42;;;;;;;19.23;16.17;;;18.50;84.30;;;;;;6185447;23;20032;-79
2023/06/18 03:35:08;;;;;;;19.60;17.05;;;18.50;84.80;;;;;;6185093;23;20021;-79
2023/06/18 03:37:35;;;;;;;20.75;16.90;;;18.50;84.90;;;;;;6184205;23;20021;-79
2023/06/18 03:40:03;;;;;;;20.70;17.00;;;18.50;84.80;;;;;;6184499;23;20470;-79
2023/06/18 03:42:29;;;;;;;21.08;17.38;;;18.40;84.80;;;;;;6185293;23;20068;-79
2023/06/18 03:44:55;;;;;;;20.55;16.88;;;18.50;85.20;;;;;;6157365;23;20012;-79
2023/06/18 03:47:20;;;;;;;19.15;16.80;;;18.40;84.80;;;;;;6158433;23;20013;-79
2023/06/18 03:49:46;;;;;;;21.27;17.08;;;18.40;85.10;;;;;;6185263;23;20084;-79
2023/06/18 03:52:12;;;;;;;19.23;16.85;;;18.40;85.30;;;;;;6157223;23;20013;-79
2023/06/18 03:54:38;;;;;;;19.80;17.02;;;18.40;85.50;;;;;;6158484;23;20100;-79
2023/06/18 03:57:04;;;;;;;20.38;17.42;;;18.30;85.40;;;;;;6184835;23;20088;-79
2023/06/18 03:59:31;;;;;;;22.77;19.05;;;18.30;85.20;;;;;;6157637;23;20036;-79
2023/06/18 04:01:57;;;;;;;20.35;17.25;;;18.30;84.80;;;;;;6184424;23;20363;-79
2023/06/18 04:04:23;;;;;;;20.83;17.65;;;18.30;85.00;;;;;;6183940;23;20067;-79
2023/06/18 04:06:49;;;;;;;20.80;17.35;;;18.30;84.80;;;;;;6158324;23;20017;-80
2023/06/18 04:09:14;;;;;;;18.85;15.70;;;18.30;85.20;;;;;;6158111;23;20108;-79
2023/06/18 04:11:43;;;;;;;20.50;17.30;;;18.20;84.60;;;;;;6157830;23;20020;-79
2023/06/18 04:14:09;;;;;;;19.23;16.33;;;18.20;84.10;;;;;;6184252;23;20029;-79
2023/06/18 04:16:34;;;;;;;20.88;17.45;;;18.10;83.70;;;;;;6158219;23;20028;-79
2023/06/18 04:19:00;;;;;;;20.30;17.02;;;18.10;83.80;;;;;;6157037;23;20017;-79
2023/06/18 04:21:26;;;;;;;22.20;18.45;;;18.10;84.00;;;;;;6158677;23;20013;-79
2023/06/18 04:23:54;;;;;;;20.65;17.85;;;18.00;83.20;;;;;;6184494;23;20426;-79
2023/06/18 04:26:21;;;;;;;21.38;17.85;;;18.00;83.60;;;;;;6157364;23;20028;-79
2023/06/18 04:28:46;;;;;;;20.67;17.30;;;18.00;83.60;;;;;;6158195;23;20017;-79
2023/06/18 04:31:12;;;;;;;21.35;18.02;;;18.00;84.20;;;;;;6157741;23;20021;-79
2023/06/18 04:33:38;;;;;;;21.15;18.08;;;17.90;84.40;;;;;;6185925;23;20017;-79
2023/06/18 04:36:03;;;;;;;21.80;18.13;;;17.90;84.90;;;;;;6159945;23;20408;-79
2023/06/18 04:38:29;;;;;;;20.63;17.77;;;17.90;85.00;;;;;;6160504;23;20024;-79
2023/06/18 04:40:55;;;;;;;22.77;18.98;;;17.90;84.80;;;;;;6159069;23;20100;-79
2023/06/18 04:43:20;;;;;;;22.02;18.65;;;17.90;85.20;;;;;;6160329;23;20020;-79
2023/06/18 04:45:47;;;;;;;21.17;17.70;;;17.90;85.70;;;;;;6160345;23;20513;-79
2023/06/18 04:48:14;;;;;;;21.50;17.73;;;17.90;85.80;;;;;;6158427;23;20013;-79
2023/06/18 04:50:40;;;;;;;21.27;17.65;;;17.90;85.60;;;;;;6186891;23;20043;-79
2023/06/18 04:53:06;;;;;;;22.48;18.55;;;17.90;85.00;;;;;;6159898;23;20016;-79
2023/06/18 04:55:32;;;;;;;21.13;17.95;;;17.90;85.60;;;;;;6158932;23;20095;-79
2023/06/18 04:57:58;;;;;;;22.50;18.73;;;17.90;85.60;;;;;;6159988;23;20017;-79
2023/06/18 05:00:23;;;;;;;21.20;18.15;;;17.90;85.90;;;;;;6186509;23;20370;-79
2023/06/18 05:02:49;;;;;;;22.25;18.23;;;17.90;86.00;;;;;;6158755;23;20543;-79
2023/06/18 05:05:15;;;;;;;23.58;18.15;;;17.90;85.70;;;;;;6160078;23;20341;-79
2023/06/18 05:07:42;;;;;;;21.50;18.20;;;17.90;85.60;;;;;;6185416;23;20020;-79
2023/06/18 05:10:08;;;;;;;20.98;17.45;;;17.90;86.00;;;;;;6159249;23;20021;-79
2023/06/18 05:12:34;;;;;;;22.67;18.27;;;17.90;86.00;;;;;;6159223;23;20221;-79
2023/06/18 05:15:00;;;;;;;20.67;17.52;;;17.90;86.10;;;;;;6158973;23;20477;-79
2023/06/18 05:17:25;;;;;;;20.65;17.45;;;17.90;85.90;;;;;;6186519;23;20017;-79
2023/06/18 05:19:51;;;;;;;21.33;18.00;;;17.90;85.90;;;;;;6159117;23;20068;-79
2023/06/18 05:22:17;;;;;;;21.63;17.52;;;17.90;85.60;;;;;;6185676;23;20055;-79
2023/06/18 05:24:42;;;;;;;20.95;17.98;;;18.00;86.00;;;;;;6186572;23;20381;-79
2023/06/18 05:27:08;;;;;;;20.98;17.17;;;17.90;85.80;;;;;;6159139;23;20025;-79
2023/06/18 05:29:34;;;;;;;22.42;18.20;;;18.00;86.40;;;;;;6158459;23;20040;-79
2023/06/18 05:31:59;;;;;;;24.10;17.98;;;18.10;86.50;;;;;;6185617;23;20346;-79
2023/06/18 05:34:25;;;;;;;20.75;17.13;;;18.10;86.30;;;;;;6159479;23;20108;-79
2023/06/18 05:36:50;;;;;;;21.92;18.38;;;18.10;86.40;;;;;;6185139;23;20009;-79
2023/06/18 05:39:16;;;;;;;21.95;18.80;;;18.10;86.40;;;;;;6160105;23;20020;-79
2023/06/18 05:41:42;;;;;;;21.75;17.85;;;18.10;86.60;;;;;;6159373;23;20473;-80
2023/06/18 05:44:07;;;;;;;20.38;17.88;;;18.10;86.40;;;;;;6184338;23;20020;-79
2023/06/18 05:46:33;;;;;;;20.95;17.25;;;18.10;86.50;;;;;;6186143;23;20426;-79
2023/06/18 05:49:00;;;;;;;21.92;17.88;;;18.20;86.10;;;;;;6185802;23;20017;-79
2023/06/18 05:51:26;;;;;;;21.55;17.70;;;18.20;86.20;;;;;;6158790;23;20099;-79
2023/06/18 05:53:51;;;;;;;20.50;17.50;;;18.20;85.70;;;;;;6159297;23;20104;-79
2023/06/18 05:56:17;;;;;;;24.08;18.70;;;18.20;85.00;;;;;;6185944;23;20429;-79
2023/06/18 05:58:42;;;;;;;29.08;22.40;;;18.20;86.00;;;;;;6184741;23;20013;-79
2023/06/18 06:01:08;;;;;;;21.55;17.80;;;18.20;89.10;;;;;;6158640;23;20016;-79
2023/06/18 06:03:35;;;;;;;20.75;17.25;;;18.20;87.80;;;;;;6159189;23;20032;-79
2023/06/18 06:06:02;;;;;;;21.67;17.20;;;18.20;87.10;;;;;;6158515;23;20461;-79
2023/06/18 06:08:28;;;;;;;21.30;16.98;;;18.30;85.70;;;;;;6185961;23;20016;-79
2023/06/18 06:10:53;;;;;;;24.05;19.38;;;18.30;85.60;;;;;;6184171;23;20072;-79
2023/06/18 06:13:19;;;;;;;20.30;16.55;;;18.30;86.50;;;;;;6185462;23;20017;-79
2023/06/18 06:15:45;;;;;;;20.92;17.27;;;18.30;85.60;;;;;;6185576;23;20354;-78
2023/06/18 06:18:11;;;;;;;19.40;16.40;;;18.30;85.80;;;;;;6184268;23;20009;-79
2023/06/18 06:20:36;;;;;;;22.15;17.75;;;18.30;86.00;;;;;;6185259;23;20331;-79
2023/06/18 06:23:02;;;;;;;20.45;16.45;;;18.40;86.60;;;;;;6158740;23;20017;-79
2023/06/18 06:25:28;;;;;;;21.05;16.95;;;18.40;86.10;;;;;;6184886;23;20013;-79
2023/06/18 06:27:53;;;;;;;19.35;16.65;;;18.40;85.40;;;;;;6158715;23;20013;-79
2023/06/18 06:30:19;;;;;;;21.52;17.23;;;18.50;85.40;;;;;;6185574;23;20025;-79
2023/06/18 06:32:45;;;;;;;21.20;16.98;;;18.50;85.00;;;;;;6184625;23;20730;-79
2023/06/18 06:35:10;;;;;;;21.38;17.67;;;18.60;85.70;;;;;;6158644;23;20005;-79
2023/06/18 06:37:36;;;;;;;22.95;18.17;;;18.60;85.70;;;;;;6159015;23;20389;-79
2023/06/18 06:40:02;;;;;;;24.48;20.00;;;18.70;87.60;;;;;;6157645;23;20407;-79
2023/06/18 06:42:28;;;;;;;18.90;15.90;;;18.80;89.20;;;;;;6184972;23;20017;-79
2023/06/18 06:44:53;;;;;;;20.67;16.67;;;18.80;87.40;;;;;;6185650;23;20040;-79
2023/06/18 06:47:19;;;;;;;20.42;16.33;;;18.90;86.70;;;;;;6157301;23;20469;-79
2023/06/18 06:49:45;;;;;;;18.88;16.23;;;19.00;86.60;;;;;;6158099;23;20017;-79
2023/06/18 06:52:11;;;;;;;19.25;16.08;;;19.00;86.00;;;;;;6184632;23;20092;-79
2023/06/18 06:54:37;;;;;;;18.75;15.63;;;19.10;86.40;;;;;;6157635;23;20013;-80
2023/06/18 06:57:03;;;;;;;18.48;15.15;;;19.20;86.30;;;;;;6158841;23;20104;-80
2023/06/18 06:59:28;;;;;;;18.10;15.18;;;19.20;85.90;;;;;;6185511;23;20013;-79
2023/06/18 07:01:54;;;;;;;22.40;16.77;;;19.30;86.40;;;;;;6157061;23;20020;-79
2023/06/18 07:04:20;;;;;;;24.58;17.10;;;19.40;88.60;;;;;;6157998;23;20024;-81
2023/06/18 07:06:46;;;;;;;19.00;14.98;;;19.50;90.60;;;;;;6185281;23;20545;-80
2023/06/18 07:09:11;;;;;;;21.63;15.70;;;19.60;89.70;;;;;;6157616;23;20044;-81
2023/06/18 07:11:37;;;;;;;19.85;15.80;;;19.70;90.20;;;;;;6185637;23;20445;-81
2023/06/18 07:14:04;;;;;;;20.85;15.07;;;19.80;90.20;;;;;;6185119;23;20009;-80
2023/06/18 07:16:29;;;;;;;18.40;15.35;;;19.90;89.10;;;;;;6157699;23;20496;-80
2023/06/18 07:18:55;;;;;;;17.98;14.52;;;20.00;89.40;;;;;;6184786;23;20012;-81
2023/06/18 07:21:21;;;;;;;16.85;13.75;;;20.00;87.70;;;;;;6184358;23;20017;-81
2023/06/18 07:23:46;;;;;;;16.17;13.32;;;20.10;86.60;;;;;;6183001;23;20013;-80
2023/06/18 07:26:12;;;;;;;17.88;14.85;;;20.20;86.10;;;;;;6157851;23;20021;-79
2023/06/18 07:28:37;;;;;;;16.75;13.13;;;20.30;87.60;;;;;;6183184;23;20030;-80
2023/06/18 07:31:03;;;;;;;17.20;14.02;;;20.40;86.00;;;;;;6157791;23;20371;-79
2023/06/18 07:33:29;;;;;;;14.07;12.13;;;20.50;86.10;;;;;;6184920;23;20013;-80
2023/06/18 07:35:54;;;;;;;19.50;15.20;;;20.60;85.80;;;;;;6157241;23;20031;-80
2023/06/18 07:38:22;;;;;;;17.85;13.82;;;20.60;88.70;;;;;;6185266;23;20072;-80
2023/06/18 07:40:48;;;;;;;16.75;13.55;;;20.70;88.60;;;;;;6157982;23;20027;-80
2023/06/18 07:43:13;;;;;;;19.23;13.57;;;20.90;88.20;;;;;;6183452;23;20021;-87
2023/06/18 07:45:39;;;;;;;17.33;12.75;;;20.90;88.70;;;;;;6185083;23;20009;-87
2023/06/18 07:48:05;;;;;;;16.48;12.95;;;21.00;86.70;;;;;;6184461;23;20013;-87
2023/06/18 07:50:31;;;;;;;17.50;13.45;;;21.10;88.30;;;;;;6157683;23;20438;-86
2023/06/18 07:52:56;;;;;;;19.25;13.82;;;21.20;89.80;;;;;;6157569;23;20028;-80
2023/06/18 07:55:22;;;;;;;19.25;13.75;;;21.30;88.80;;;;;;6184762;23;20075;-81
2023/06/18 07:57:48;;;;;;;18.55;13.30;;;21.40;89.70;;;;;;6156863;23;20037;-82
2023/06/18 08:00:14;;;;;;;19.10;13.63;;;21.50;89.50;;;;;;6157427;23;20445;-81
2023/06/18 08:02:39;;;;;;;15.63;13.18;;;21.70;88.80;;;;;;6157914;23;20075;-80
2023/06/18 08:05:07;;;;;;;16.35;12.93;;;21.80;87.80;;;;;;6183620;23;20009;-83
2023/06/18 08:07:32;;;;;;;15.18;12.05;;;21.90;87.60;;;;;;6185229;23;20076;-83
2023/06/18 08:09:58;;;;;;;16.85;13.60;;;22.10;87.50;;;;;;6159034;23;20009;-83
2023/06/18 08:12:23;;;;;;;18.63;11.82;;;22.20;88.50;;;;;;6159107;23;20072;-83
2023/06/18 08:14:49;;;;;;;16.02;11.90;;;22.30;87.90;;;;;;6186302;23;20024;-83
2023/06/18 08:17:17;;;;;;;15.50;12.32;;;22.40;87.70;;;;;;6159936;23;20013;-84
2023/06/18 08:19:45;;;;;;;17.05;13.65;;;22.50;86.10;;;;;;6159436;23;20016;-84
2023/06/18 08:22:19;;;;;;;13.25;10.57;;;22.70;86.90;;;;;;6159768;23;20013;-85
2023/06/18 08:24:45;;;;;;;14.65;11.82;;;22.80;84.40;;;;;;6159413;23;20013;-84
2023/06/18 08:27:12;;;;;;;15.38;11.25;;;22.90;84.90;;;;;;6159410;23;20063;-85
2023/06/18 08:29:38;;;;;;;11.93;9.70;;;23.00;84.80;;;;;;6160904;23;20024;-85
2023/06/18 08:32:07;;;;;;;13.20;9.93;;;23.20;83.70;;;;;;6158348;23;20017;-82
2023/06/18 08:34:33;;;;;;;13.88;10.30;;;23.30;82.00;;;;;;6160081;23;20092;-82
2023/06/18 08:36:59;;;;;;;13.50;10.13;;;23.40;82.90;;;;;;6159980;23;20017;-84
2023/06/18 08:39:26;;;;;;;13.18;9.43;;;23.50;83.40;;;;;;6158607;23;20009;-84
2023/06/18 08:41:54;;;;;;;11.68;9.38;;;23.60;83.60;;;;;;6159320;23;20394;-85
2023/06/18 08:44:23;;;;;;;12.50;9.07;;;23.80;81.60;;;;;;6160097;23;20060;-84
2023/06/18 08:46:50;;;;;;;11.75;8.88;;;23.90;81.10;;;;;;6185724;23;20005;-84
2023/06/18 08:49:18;;;;;;;10.93;9.20;;;24.00;80.60;;;;;;6159739;23;20013;-84
2023/06/18 08:51:45;;;;;;;10.77;8.50;;;24.10;80.70;;;;;;6159760;23;20021;-85
2023/06/18 08:54:20;;;;;;;13.68;9.27;;;24.30;79.20;;;;;;6183905;23;20092;-84
2023/06/18 08:56:58;;;;;;;11.02;8.60;;;24.40;79.20;;;;;;6186639;23;20024;-84
2023/06/18 08:59:26;;;;;;;11.00;8.38;;;24.50;79.20;;;;;;6159986;23;20020;-84
2023/06/18 09:01:53;;;;;;;11.00;8.63;;;24.60;77.10;;;;;;6183957;23;20088;-84
2023/06/18 09:04:21;;;;;;;10.77;7.97;;;24.70;78.90;;;;;;6159132;23;20013;-85
2023/06/18 09:06:47;;;;;;;12.35;8.10;;;24.80;76.10;;;;;;6158562;23;20010;-85
2023/06/18 09:09:13;;;;;;;9.45;7.65;;;24.90;74.30;;;;;;6159196;23;20021;-85
2023/06/18 09:11:38;;;;;;;11.68;8.00;;;25.10;74.80;;;;;;6186399;23;20013;-85
2023/06/18 09:14:04;;;;;;;10.05;7.45;;;25.20;73.60;;;;;;6157530;23;20099;-84
2023/06/18 09:16:30;;;;;;;9.73;6.90;;;25.20;74.20;;;;;;6159661;23;20096;-83
2023/06/18 09:18:56;;;;;;;9.52;7.60;;;25.40;73.40;;;;;;6185510;23;20021;-85
2023/06/18 09:21:38;;;;;;;8.93;7.00;;;25.40;73.10;;;;;;6185098;23;20017;-86
2023/06/18 09:24:11;;;;;;;8.57;6.90;;;25.50;72.30;;;;;;6158918;23;20411;-84
2023/06/18 09:26:37;;;;;;;9.07;6.80;;;25.60;72.10;;;;;;6185905;23;20450;-84
2023/06/18 09:29:07;;;;;;;11.90;7.70;;;25.60;71.90;;;;;;6158273;23;20096;-84
2023/06/18 09:31:34;;;;;;;9.93;7.18;;;25.70;71.90;;;;;;6158660;23;20111;-86
2023/06/18 09:34:17;;;;;;;8.95;6.57;;;25.80;71.10;;;;;;6159175;23;20021;-84
2023/06/18 09:36:45;;;;;;;9.82;6.70;;;25.90;67.50;;;;;;6185677;23;20049;-84
2023/06/18 09:39:22;;;;;;;8.77;6.40;;;26.00;66.60;;;;;;6185601;23;20092;-83
2023/06/18 09:41:50;;;;;;;9.60;6.90;;;26.00;64.40;;;;;;6159429;23;20020;-84
2023/06/18 09:44:17;;;;;;;9.30;6.63;;;26.10;66.20;;;;;;6185543;23;20017;-84
2023/06/18 09:46:48;;;;;;;9.43;7.30;;;26.20;64.20;;;;;;6158426;23;20378;-83
2023/06/18 09:49:16;;;;;;;8.50;7.13;;;26.30;63.70;;;;;;6157830;23;20087;-84
2023/06/18 09:51:42;;;;;;;10.55;7.10;;;26.40;65.70;;;;;;6158183;23;20013;-83
2023/06/18 09:54:08;;;;;;;8.32;6.20;;;26.50;65.90;;;;;;6184827;23;20790;-83
2023/06/18 09:56:34;;;;;;;9.38;6.50;;;26.60;66.50;;;;;;6184212;23;20013;-83
2023/06/18 09:59:03;;;;;;;9.55;6.68;;;26.60;65.30;;;;;;6157274;23;20017;-83
2023/06/18 10:01:51;;;;;;;10.50;6.30;;;26.70;60.20;;;;;;6157781;23;20021;-83
2023/06/18 10:04:18;;;;;;;8.75;6.03;;;26.80;60.00;;;;;;6155610;23;20028;-83
2023/06/18 10:06:51;;;;;;;8.23;5.93;;;26.90;60.20;;;;;;6184250;23;20013;-83
2023/06/18 10:09:19;;;;;;;9.98;6.55;;;26.90;60.80;;;;;;6184341;23;20049;-83
2023/06/18 10:11:48;;;;;;;10.07;5.78;;;27.00;61.50;;;;;;6156842;23;20021;-83
2023/06/18 10:14:16;;;;;;;9.32;6.15;;;27.00;60.30;;;;;;6185715;23;20015;-83
2023/06/18 10:16:48;;;;;;;9.10;6.03;;;27.10;60.90;;;;;;6185863;23;20013;-82
2023/06/18 10:19:18;;;;;;;10.35;6.25;;;27.10;57.10;;;;;;6157199;23;20044;-82
2023/06/18 10:21:49;;;;;;;8.15;6.20;;;27.20;57.70;;;;;;6159202;23;20793;-82
2023/06/18 10:24:22;;;;;;;10.25;6.38;;;27.20;58.60;;;;;;6184510;23;20029;-82
2023/06/18 10:26:49;;;;;;;8.38;5.80;;;27.30;57.60;;;;;;6185147;23;20013;-82
2023/06/18 10:29:15;;;;;;;7.50;5.82;;;27.30;57.60;;;;;;6184264;23;20501;-82
2023/06/18 10:31:41;;;;;;;8.65;6.47;;;27.40;58.10;;;;;;6184163;23;20021;-83
2023/06/18 10:34:08;;;;;;;7.82;6.00;;;27.50;58.90;;;;;;6183326;23;20024;-81
2023/06/18 10:36:34;;;;;;;7.95;5.75;;;27.50;59.10;;;;;;6157472;23;20450;-82
2023/06/18 10:39:01;;;;;;;11.40;6.10;;;27.60;60.00;;;;;;6183819;23;20021;-82
2023/06/18 10:41:27;;;;;;;8.48;6.13;;;27.60;56.80;;;;;;6158325;23;20060;-82
2023/06/18 10:43:55;;;;;;;7.97;5.80;;;27.60;56.60;;;;;;6185046;23;20100;-83
2023/06/18 10:46:21;;;;;;;8.95;6.15;;;27.60;55.80;;;;;;6158366;23;20013;-82
2023/06/18 10:49:15;;;;;;;6.53;5.47;;;27.70;55.70;;;;;;6158514;23;20021;-83
2023/06/18 10:51:59;;;;;;;7.43;6.00;;;27.70;60.10;;;;;;6158519;23;20096;-82
2023/06/18 10:54:33;;;;;;;8.05;6.00;;;27.80;58.70;;;;;;6157495;23;20111;-81
2023/06/18 10:57:01;;;;;;;10.73;6.18;;;27.80;60.50;;;;;;6184507;23;20013;-82
2023/06/18 10:59:44;;;;;;;8.93;5.93;;;27.80;55.80;;;;;;6184413;23;20071;-82
2023/06/18 11:02:10;;;;;;;;;;;27.80;57.20;;;;;;6158598;23;20417;-82
2023/06/18 11:04:36;;;;;;;10.52;6.22;;;27.80;55.10;;;;;;6158832;23;19923;-82
2023/06/18 11:07:19;;;;;;;11.13;5.88;;;27.80;56.70;;;;;;6184042;23;20337;-82
2023/06/18 11:09:58;;;;;;;8.52;5.60;;;27.90;55.50;;;;;;6157852;23;20414;-83
2023/06/18 11:12:25;;;;;;;9.13;6.25;;;27.90;54.20;;;;;;6158490;23;20017;-83
2023/06/18 11:15:16;;;;;;;8.88;5.75;;;28.00;53.90;;;;;;6184127;23;20016;-82
2023/06/18 11:17:50;;;;;;;8.50;6.28;;;28.00;54.30;;;;;;6185163;23;20020;-82
2023/06/18 11:20:23;;;;;;;7.22;6.22;;;28.00;53.50;;;;;;6158145;23;20032;-82
2023/06/18 11:22:55;;;;;;;8.20;6.05;;;28.10;55.30;;;;;;6158156;23;20017;-82
2023/06/18 11:25:20;;;;;;;9.90;6.35;;;28.10;53.40;;;;;;6158340;23;20012;-82
2023/06/18 11:27:48;;;;;;;7.97;5.55;;;28.20;55.30;;;;;;6157422;23;20397;-82
2023/06/18 11:30:14;;;;;;;8.05;6.20;;;28.20;56.00;;;;;;6158194;23;20445;-82
2023/06/18 11:32:41;;;;;;;6.50;5.45;;;28.20;57.00;;;;;;6158455;23;20420;-82
2023/06/18 11:35:08;;;;;;;7.40;5.80;;;28.30;59.40;;;;;;6184094;23;20010;-83
2023/06/18 11:37:34;;;;;;;6.80;5.60;;;28.30;59.30;;;;;;6158005;23;20104;-82
2023/06/18 11:40:02;;;;;;;9.05;6.70;;;28.40;61.10;;;;;;6183704;23;20024;-82
2023/06/18 11:42:28;;;;;;;9.23;6.20;;;28.40;61.10;;;;;;6157571;23;20028;-81
2023/06/18 11:45:01;;;;;;;8.45;6.05;;;28.50;56.30;;;;;;6184095;23;20342;-82
2023/06/18 11:47:28;;;;;;;9.98;6.32;;;28.50;55.70;;;;;;6158193;23;20099;-82
2023/06/18 11:49:54;;;;;;;7.60;5.80;;;28.60;53.60;;;;;;6156577;23;20009;-82
2023/06/18 11:52:22;;;;;;;9.20;6.43;;;28.60;56.00;;;;;;6184998;23;20017;-82
2023/06/18 11:54:48;;;;;;;10.25;5.90;;;28.70;53.10;;;;;;6185137;23;20012;-82
2023/06/18 11:57:16;;;;;;;9.68;6.10;;;28.70;52.00;;;;;;6157227;23;20696;-83
2023/06/18 11:59:43;;;;;;;6.85;5.57;;;28.70;52.30;;;;;;6185028;23;20070;-82
2023/06/18 12:02:14;;;;;;;10.50;6.22;;;28.80;56.90;;;;;;6157797;23;20027;-83
2023/06/18 12:04:43;;;;;;;8.05;5.95;;;28.80;53.00;;;;;;6184046;23;20013;-83
2023/06/18 12:07:20;;;;;;;9.43;6.20;;;28.80;56.20;;;;;;6157548;23;20040;-84
2023/06/18 12:09:47;;;;;;;9.80;5.45;;;28.80;58.10;;;;;;6157578;23;20017;-83
2023/06/18 12:12:27;;;;;;;9.75;6.00;;;28.90;54.10;;;;;;6184320;23;20012;-83
2023/06/18 12:15:08;;;;;;;9.02;5.55;;;28.90;53.20;;;;;;6184650;23;20014;-83
2023/06/18 12:17:49;;;;;;;7.63;5.93;;;29.00;50.90;;;;;;6157788;23;20323;-83
2023/06/18 12:20:17;;;;;;;8.10;5.50;;;29.00;57.20;;;;;;6185114;23;20013;-84
2023/06/18 12:22:43;;;;;;;7.25;5.45;;;29.10;58.50;;;;;;6158254;23;20017;-84
2023/06/18 12:25:11;;;;;;;7.43;5.20;;;29.10;60.10;;;;;;6155758;23;20088;-83
2023/06/18 12:27:39;;;;;;;8.60;5.13;;;29.20;53.50;;;;;;6184152;23;20021;-82
2023/06/18 12:30:06;;;;;;;6.60;5.30;;;29.30;56.60;;;;;;6157179;23;20036;-82
2023/06/18 12:32:36;;;;;;;6.97;5.53;;;29.30;59.80;;;;;;6157303;23;20017;-88
2023/06/18 12:35:15;;;;;;;10.05;5.50;;;29.40;59.80;;;;;;6158096;23;20099;-89